sensor_id;sensor_type;location;lat;lon;timestamp;temperature;humidity
21844;DHT22;11084;52.482;9.108;2022-07-29T00:01:29;14.70;91.60
21844;DHT22;11084;52.482;9.108;2022-07-29T00:03:55;14.70;91.50
21844;DHT22;11084;52.482;9.108;2022-07-29T00:06:21;14.70;90.80
21844;DHT22;11084;52.482;9.108;2022-07-29T00:08:47;14.70;91.60
21844;DHT22;11084;52.482;9.108;2022-07-29T00:11:13;14.70;90.90
21844;DHT22;11084;52.482;9.108;2022-07-29T00:13:39;14.70;91.50
21844;DHT22;11084;52.482;9.108;2022-07-29T00:16:05;14.60;90.90
21844;DHT22;11084;52.482;9.108;2022-07-29T00:18:32;14.70;91.50
21844;DHT22;11084;52.482;9.108;2022-07-29T00:20:58;14.70;90.80
21844;DHT22;11084;52.482;9.108;2022-07-29T00:23:24;14.60;91.50
21844;DHT22;11084;52.482;9.108;2022-07-29T00:25:50;14.70;91.00
21844;DHT22;11084;52.482;9.108;2022-07-29T00:28:16;14.60;91.40
21844;DHT22;11084;52.482;9.108;2022-07-29T00:30:42;14.60;91.40
21844;DHT22;11084;52.482;9.108;2022-07-29T00:33:09;14.60;90.90
21844;DHT22;11084;52.482;9.108;2022-07-29T00:35:35;14.60;91.40
21844;DHT22;11084;52.482;9.108;2022-07-29T00:38:15;14.50;91.40
21844;DHT22;11084;52.482;9.108;2022-07-29T00:43:10;14.60;91.30
21844;DHT22;11084;52.482;9.108;2022-07-29T00:45:37;14.50;90.70
21844;DHT22;11084;52.482;9.108;2022-07-29T00:48:04;14.60;91.20
21844;DHT22;11084;52.482;9.108;2022-07-29T00:50:31;14.60;90.80
21844;DHT22;11084;52.482;9.108;2022-07-29T00:52:58;14.60;90.60
21844;DHT22;11084;52.482;9.108;2022-07-29T00:55:24;14.60;91.10
21844;DHT22;11084;52.482;9.108;2022-07-29T00:57:51;14.60;90.60
21844;DHT22;11084;52.482;9.108;2022-07-29T01:00:21;14.60;90.60
21844;DHT22;11084;52.482;9.108;2022-07-29T01:02:49;14.60;91.00
21844;DHT22;11084;52.482;9.108;2022-07-29T01:05:18;14.60;90.50
21844;DHT22;11084;52.482;9.108;2022-07-29T01:07:47;14.70;90.40
21844;DHT22;11084;52.482;9.108;2022-07-29T01:10:15;14.60;90.90
21844;DHT22;11084;52.482;9.108;2022-07-29T01:12:43;14.60;90.40
21844;DHT22;11084;52.482;9.108;2022-07-29T01:15:11;14.60;90.70
21844;DHT22;11084;52.482;9.108;2022-07-29T01:20:26;14.70;90.20
21844;DHT22;11084;52.482;9.108;2022-07-29T01:26:35;14.60;90.00
21844;DHT22;11084;52.482;9.108;2022-07-29T01:31:54;14.80;89.70
21844;DHT22;11084;52.482;9.108;2022-07-29T01:34:45;14.80;89.30
21844;DHT22;11084;52.482;9.108;2022-07-29T01:37:33;14.90;88.90
21844;DHT22;11084;52.482;9.108;2022-07-29T01:40:05;14.90;89.00
21844;DHT22;11084;52.482;9.108;2022-07-29T01:42:45;14.90;88.60
21844;DHT22;11084;52.482;9.108;2022-07-29T01:47:59;15.00;88.80
21844;DHT22;11084;52.482;9.108;2022-07-29T01:50:35;15.00;88.70
21844;DHT22;11084;52.482;9.108;2022-07-29T01:53:08;15.00;88.10
21844;DHT22;11084;52.482;9.108;2022-07-29T01:55:39;15.00;88.70
21844;DHT22;11084;52.482;9.108;2022-07-29T01:58:07;14.90;88.00
21844;DHT22;11084;52.482;9.108;2022-07-29T02:00:34;15.00;88.00
21844;DHT22;11084;52.482;9.108;2022-07-29T02:03:07;15.00;88.00
21844;DHT22;11084;52.482;9.108;2022-07-29T02:05:36;15.00;88.30
21844;DHT22;11084;52.482;9.108;2022-07-29T02:08:04;15.10;88.00
21844;DHT22;11084;52.482;9.108;2022-07-29T02:10:32;15.00;88.30
21844;DHT22;11084;52.482;9.108;2022-07-29T02:12:59;15.00;88.40
21844;DHT22;11084;52.482;9.108;2022-07-29T02:15:28;15.10;88.10
21844;DHT22;11084;52.482;9.108;2022-07-29T02:18:05;15.00;88.40
21844;DHT22;11084;52.482;9.108;2022-07-29T02:20:34;15.00;88.60
21844;DHT22;11084;52.482;9.108;2022-07-29T02:23:02;14.90;88.10
21844;DHT22;11084;52.482;9.108;2022-07-29T02:25:29;15.10;88.10
21844;DHT22;11084;52.482;9.108;2022-07-29T02:27:56;15.00;88.70
21844;DHT22;11084;52.482;9.108;2022-07-29T02:30:28;15.00;88.60
21844;DHT22;11084;52.482;9.108;2022-07-29T02:32:55;15.00;88.10
21844;DHT22;11084;52.482;9.108;2022-07-29T02:35:22;14.90;89.00
21844;DHT22;11084;52.482;9.108;2022-07-29T02:37:48;14.90;88.60
21844;DHT22;11084;52.482;9.108;2022-07-29T02:40:38;14.90;88.50
21844;DHT22;11084;52.482;9.108;2022-07-29T02:43:06;14.90;88.60
21844;DHT22;11084;52.482;9.108;2022-07-29T02:45:33;14.90;89.50
21844;DHT22;11084;52.482;9.108;2022-07-29T02:48:06;14.90;88.80
21844;DHT22;11084;52.482;9.108;2022-07-29T02:50:44;14.80;88.80
21844;DHT22;11084;52.482;9.108;2022-07-29T02:53:18;14.90;89.00
21844;DHT22;11084;52.482;9.108;2022-07-29T03:01:16;14.80;90.40
21844;DHT22;11084;52.482;9.108;2022-07-29T03:03:48;14.80;90.00
21844;DHT22;11084;52.482;9.108;2022-07-29T03:06:17;14.80;90.30
21844;DHT22;11084;52.482;9.108;2022-07-29T03:08:44;14.80;90.00
21844;DHT22;11084;52.482;9.108;2022-07-29T03:11:11;14.80;90.50
21844;DHT22;11084;52.482;9.108;2022-07-29T03:13:39;14.70;90.00
21844;DHT22;11084;52.482;9.108;2022-07-29T03:16:05;14.80;90.40
21844;DHT22;11084;52.482;9.108;2022-07-29T03:18:33;14.80;90.50
21844;DHT22;11084;52.482;9.108;2022-07-29T03:23:26;14.70;91.30
21844;DHT22;11084;52.482;9.108;2022-07-29T03:25:54;14.60;90.50
21844;DHT22;11084;52.482;9.108;2022-07-29T03:28:20;14.70;91.50
21844;DHT22;11084;52.482;9.108;2022-07-29T03:30:47;14.70;91.00
21844;DHT22;11084;52.482;9.108;2022-07-29T03:33:14;14.70;90.70
21844;DHT22;11084;52.482;9.108;2022-07-29T03:35:40;14.70;91.20
21844;DHT22;11084;52.482;9.108;2022-07-29T03:38:06;14.60;90.80
21844;DHT22;11084;52.482;9.108;2022-07-29T03:40:48;14.70;90.80
21844;DHT22;11084;52.482;9.108;2022-07-29T03:43:17;14.60;90.90
21844;DHT22;11084;52.482;9.108;2022-07-29T03:45:47;14.60;91.00
21844;DHT22;11084;52.482;9.108;2022-07-29T03:48:16;14.60;91.30
21844;DHT22;11084;52.482;9.108;2022-07-29T03:50:44;14.60;91.20
21844;DHT22;11084;52.482;9.108;2022-07-29T03:53:12;14.50;91.90
21844;DHT22;11084;52.482;9.108;2022-07-29T03:55:43;14.40;91.50
21844;DHT22;11084;52.482;9.108;2022-07-29T03:58:12;14.50;91.20
21844;DHT22;11084;52.482;9.108;2022-07-29T04:00:40;14.50;91.80
21844;DHT22;11084;52.482;9.108;2022-07-29T04:03:06;14.50;91.90
21844;DHT22;11084;52.482;9.108;2022-07-29T04:05:33;14.50;92.00
21844;DHT22;11084;52.482;9.108;2022-07-29T04:07:59;14.40;92.20
21844;DHT22;11084;52.482;9.108;2022-07-29T04:10:25;14.40;91.40
21844;DHT22;11084;52.482;9.108;2022-07-29T04:12:51;14.40;92.20
21844;DHT22;11084;52.482;9.108;2022-07-29T04:15:18;14.50;91.80
21844;DHT22;11084;52.482;9.108;2022-07-29T04:17:44;14.60;91.60
21844;DHT22;11084;52.482;9.108;2022-07-29T04:20:11;14.50;91.60
21844;DHT22;11084;52.482;9.108;2022-07-29T04:22:40;14.50;92.30
21844;DHT22;11084;52.482;9.108;2022-07-29T04:25:07;14.60;92.30
21844;DHT22;11084;52.482;9.108;2022-07-29T04:27:33;14.60;92.40
21844;DHT22;11084;52.482;9.108;2022-07-29T04:29:59;14.60;92.30
21844;DHT22;11084;52.482;9.108;2022-07-29T04:34:52;14.60;92.70
21844;DHT22;11084;52.482;9.108;2022-07-29T04:37:18;14.50;92.00
21844;DHT22;11084;52.482;9.108;2022-07-29T04:39:45;14.60;92.80
21844;DHT22;11084;52.482;9.108;2022-07-29T04:42:11;14.70;92.40
21844;DHT22;11084;52.482;9.108;2022-07-29T04:47:03;14.60;93.00
21844;DHT22;11084;52.482;9.108;2022-07-29T04:49:29;14.60;92.50
21844;DHT22;11084;52.482;9.108;2022-07-29T04:54:21;14.60;93.10
21844;DHT22;11084;52.482;9.108;2022-07-29T04:56:47;14.60;92.40
21844;DHT22;11084;52.482;9.108;2022-07-29T04:59:14;14.60;93.10
21844;DHT22;11084;52.482;9.108;2022-07-29T05:01:40;14.70;92.90
21844;DHT22;11084;52.482;9.108;2022-07-29T05:04:06;14.70;92.60
21844;DHT22;11084;52.482;9.108;2022-07-29T05:06:31;14.70;93.30
21844;DHT22;11084;52.482;9.108;2022-07-29T05:08:57;14.80;92.90
21844;DHT22;11084;52.482;9.108;2022-07-29T05:11:23;14.80;93.30
21844;DHT22;11084;52.482;9.108;2022-07-29T05:16:15;14.80;93.40
21844;DHT22;11084;52.482;9.108;2022-07-29T05:18:41;14.80;92.80
21844;DHT22;11084;52.482;9.108;2022-07-29T05:21:07;14.90;93.60
21844;DHT22;11084;52.482;9.108;2022-07-29T05:23:33;15.00;93.20
21844;DHT22;11084;52.482;9.108;2022-07-29T05:25:59;15.00;93.00
21844;DHT22;11084;52.482;9.108;2022-07-29T05:28:25;15.00;93.60
21844;DHT22;11084;52.482;9.108;2022-07-29T05:30:51;15.10;93.20
21844;DHT22;11084;52.482;9.108;2022-07-29T05:33:17;15.20;93.30
21844;DHT22;11084;52.482;9.108;2022-07-29T05:35:43;15.10;93.90
21844;DHT22;11084;52.482;9.108;2022-07-29T05:38:09;15.20;94.00
21844;DHT22;11084;52.482;9.108;2022-07-29T05:40:35;15.20;93.40
21844;DHT22;11084;52.482;9.108;2022-07-29T05:43:01;15.30;94.10
21844;DHT22;11084;52.482;9.108;2022-07-29T05:45:27;15.30;93.50
21844;DHT22;11084;52.482;9.108;2022-07-29T05:47:53;15.40;93.80
21844;DHT22;11084;52.482;9.108;2022-07-29T05:50:19;15.50;93.60
21844;DHT22;11084;52.482;9.108;2022-07-29T05:52:45;15.50;93.40
21844;DHT22;11084;52.482;9.108;2022-07-29T05:55:11;15.50;93.70
21844;DHT22;11084;52.482;9.108;2022-07-29T06:00:04;15.60;93.30
21844;DHT22;11084;52.482;9.108;2022-07-29T06:02:38;15.70;93.90
21844;DHT22;11084;52.482;9.108;2022-07-29T06:05:04;15.70;93.50
21844;DHT22;11084;52.482;9.108;2022-07-29T06:07:30;15.70;93.30
21844;DHT22;11084;52.482;9.108;2022-07-29T06:09:58;15.80;93.60
21844;DHT22;11084;52.482;9.108;2022-07-29T06:12:24;15.80;93.30
21844;DHT22;11084;52.482;9.108;2022-07-29T06:14:50;15.90;93.70
21844;DHT22;11084;52.482;9.108;2022-07-29T06:17:16;16.00;93.60
21844;DHT22;11084;52.482;9.108;2022-07-29T06:19:42;16.00;93.10
21844;DHT22;11084;52.482;9.108;2022-07-29T06:22:08;16.10;93.30
21844;DHT22;11084;52.482;9.108;2022-07-29T06:24:36;16.10;93.30
21844;DHT22;11084;52.482;9.108;2022-07-29T06:27:05;16.10;93.10
21844;DHT22;11084;52.482;9.108;2022-07-29T06:29:31;16.10;93.00
21844;DHT22;11084;52.482;9.108;2022-07-29T06:31:57;16.50;93.20
21844;DHT22;11084;52.482;9.108;2022-07-29T06:34:23;16.20;93.20
21844;DHT22;11084;52.482;9.108;2022-07-29T06:36:49;16.30;93.20
21844;DHT22;11084;52.482;9.108;2022-07-29T06:39:15;16.30;93.20
21844;DHT22;11084;52.482;9.108;2022-07-29T06:41:41;16.40;92.90
21844;DHT22;11084;52.482;9.108;2022-07-29T06:44:10;16.50;93.10
21844;DHT22;11084;52.482;9.108;2022-07-29T06:46:36;16.50;93.10
21844;DHT22;11084;52.482;9.108;2022-07-29T06:49:02;16.60;92.80
21844;DHT22;11084;52.482;9.108;2022-07-29T06:51:28;16.60;92.70
21844;DHT22;11084;52.482;9.108;2022-07-29T06:53:54;16.60;92.90
21844;DHT22;11084;52.482;9.108;2022-07-29T06:56:21;16.70;93.00
21844;DHT22;11084;52.482;9.108;2022-07-29T06:58:47;16.80;93.00
21844;DHT22;11084;52.482;9.108;2022-07-29T07:01:13;16.80;92.60
21844;DHT22;11084;52.482;9.108;2022-07-29T07:03:39;16.90;92.80
21844;DHT22;11084;52.482;9.108;2022-07-29T07:06:05;17.00;92.50
21844;DHT22;11084;52.482;9.108;2022-07-29T07:08:31;17.00;92.80
21844;DHT22;11084;52.482;9.108;2022-07-29T07:10:57;17.10;92.30
21844;DHT22;11084;52.482;9.108;2022-07-29T07:13:24;17.20;92.30
21844;DHT22;11084;52.482;9.108;2022-07-29T07:15:50;17.20;92.50
21844;DHT22;11084;52.482;9.108;2022-07-29T07:18:18;17.60;92.20
21844;DHT22;11084;52.482;9.108;2022-07-29T07:20:44;17.70;92.00
21844;DHT22;11084;52.482;9.108;2022-07-29T07:23:11;17.70;92.10
21844;DHT22;11084;52.482;9.108;2022-07-29T07:25:37;18.00;91.70
21844;DHT22;11084;52.482;9.108;2022-07-29T07:28:03;18.10;91.60
21844;DHT22;11084;52.482;9.108;2022-07-29T07:32:56;18.10;91.40
21844;DHT22;11084;52.482;9.108;2022-07-29T07:35:22;18.20;91.50
21844;DHT22;11084;52.482;9.108;2022-07-29T07:37:48;18.30;91.30
21844;DHT22;11084;52.482;9.108;2022-07-29T07:40:14;18.50;90.80
21844;DHT22;11084;52.482;9.108;2022-07-29T07:42:40;18.60;90.50
21844;DHT22;11084;52.482;9.108;2022-07-29T07:45:07;18.60;90.90
21844;DHT22;11084;52.482;9.108;2022-07-29T07:47:36;18.90;90.20
21844;DHT22;11084;52.482;9.108;2022-07-29T07:50:05;19.10;90.10
21844;DHT22;11084;52.482;9.108;2022-07-29T07:52:32;19.20;90.30
21844;DHT22;11084;52.482;9.108;2022-07-29T07:54:58;19.40;88.80
21844;DHT22;11084;52.482;9.108;2022-07-29T07:57:25;19.50;88.40
21844;DHT22;11084;52.482;9.108;2022-07-29T07:59:51;19.50;89.00
21844;DHT22;11084;52.482;9.108;2022-07-29T08:02:16;19.70;87.50
21844;DHT22;11084;52.482;9.108;2022-07-29T08:04:42;19.90;87.50
21844;DHT22;11084;52.482;9.108;2022-07-29T08:07:09;19.90;88.30
21844;DHT22;11084;52.482;9.108;2022-07-29T08:09:35;20.10;85.90
21844;DHT22;11084;52.482;9.108;2022-07-29T08:12:02;20.20;86.10
21844;DHT22;11084;52.482;9.108;2022-07-29T08:14:32;20.20;86.70
21844;DHT22;11084;52.482;9.108;2022-07-29T08:16:59;20.20;85.40
21844;DHT22;11084;52.482;9.108;2022-07-29T08:19:25;20.30;85.90
21844;DHT22;11084;52.482;9.108;2022-07-29T08:21:51;20.30;85.50
21844;DHT22;11084;52.482;9.108;2022-07-29T08:24:19;20.40;83.50
21844;DHT22;11084;52.482;9.108;2022-07-29T08:27:04;20.50;83.60
21844;DHT22;11084;52.482;9.108;2022-07-29T08:29:30;20.60;83.60
21844;DHT22;11084;52.482;9.108;2022-07-29T08:31:56;20.60;84.20
21844;DHT22;11084;52.482;9.108;2022-07-29T08:34:22;20.70;82.70
21844;DHT22;11084;52.482;9.108;2022-07-29T08:36:48;20.70;82.80
21844;DHT22;11084;52.482;9.108;2022-07-29T08:39:14;21.00;81.90
21844;DHT22;11084;52.482;9.108;2022-07-29T08:41:40;21.00;82.60
21844;DHT22;11084;52.482;9.108;2022-07-29T08:44:06;21.10;82.20
21844;DHT22;11084;52.482;9.108;2022-07-29T08:46:33;21.20;82.20
21844;DHT22;11084;52.482;9.108;2022-07-29T08:48:59;21.40;82.00
21844;DHT22;11084;52.482;9.108;2022-07-29T08:51:25;21.70;80.30
21844;DHT22;11084;52.482;9.108;2022-07-29T08:53:54;21.70;80.80
21844;DHT22;11084;52.482;9.108;2022-07-29T08:56:21;21.90;80.20
21844;DHT22;11084;52.482;9.108;2022-07-29T08:58:48;22.00;79.90
21844;DHT22;11084;52.482;9.108;2022-07-29T09:01:22;22.10;79.50
21844;DHT22;11084;52.482;9.108;2022-07-29T09:03:49;22.30;79.20
21844;DHT22;11084;52.482;9.108;2022-07-29T09:06:18;22.80;76.90
21844;DHT22;11084;52.482;9.108;2022-07-29T09:08:44;23.10;77.00
21844;DHT22;11084;52.482;9.108;2022-07-29T09:11:11;23.10;77.30
21844;DHT22;11084;52.482;9.108;2022-07-29T09:13:39;23.90;74.00
21844;DHT22;11084;52.482;9.108;2022-07-29T09:16:06;24.30;73.20
21844;DHT22;11084;52.482;9.108;2022-07-29T09:18:40;24.30;73.80
21844;DHT22;11084;52.482;9.108;2022-07-29T09:21:10;24.70;70.40
21844;DHT22;11084;52.482;9.108;2022-07-29T09:24:14;24.70;70.90
21844;DHT22;11084;52.482;9.108;2022-07-29T09:26:46;24.90;67.50
21844;DHT22;11084;52.482;9.108;2022-07-29T09:29:17;25.10;66.90
21844;DHT22;11084;52.482;9.108;2022-07-29T09:31:50;25.30;67.80
21844;DHT22;11084;52.482;9.108;2022-07-29T09:34:23;25.50;67.60
21844;DHT22;11084;52.482;9.108;2022-07-29T09:36:55;25.50;67.60
21844;DHT22;11084;52.482;9.108;2022-07-29T09:39:34;25.60;67.60
21844;DHT22;11084;52.482;9.108;2022-07-29T09:42:10;25.70;66.90
21844;DHT22;11084;52.482;9.108;2022-07-29T09:44:57;25.90;64.70
21844;DHT22;11084;52.482;9.108;2022-07-29T09:47:49;26.00;64.40
21844;DHT22;11084;52.482;9.108;2022-07-29T09:50:15;26.10;63.90
21844;DHT22;11084;52.482;9.108;2022-07-29T09:52:48;26.10;62.30
21844;DHT22;11084;52.482;9.108;2022-07-29T09:55:17;26.10;62.50
21844;DHT22;11084;52.482;9.108;2022-07-29T09:57:45;26.20;64.40
21844;DHT22;11084;52.482;9.108;2022-07-29T10:00:17;26.20;62.60
21844;DHT22;11084;52.482;9.108;2022-07-29T10:02:46;26.20;61.90
21844;DHT22;11084;52.482;9.108;2022-07-29T10:05:21;26.30;61.10
21844;DHT22;11084;52.482;9.108;2022-07-29T10:07:51;26.30;61.00
21844;DHT22;11084;52.482;9.108;2022-07-29T10:10:27;26.50;61.40
21844;DHT22;11084;52.482;9.108;2022-07-29T10:12:57;26.70;60.70
21844;DHT22;11084;52.482;9.108;2022-07-29T10:15:26;26.70;61.60
21844;DHT22;11084;52.482;9.108;2022-07-29T10:17:55;27.00;61.00
21844;DHT22;11084;52.482;9.108;2022-07-29T10:20:23;27.00;61.50
21844;DHT22;11084;52.482;9.108;2022-07-29T10:22:51;27.10;59.70
21844;DHT22;11084;52.482;9.108;2022-07-29T10:25:18;27.30;59.90
21844;DHT22;11084;52.482;9.108;2022-07-29T10:27:46;27.40;58.20
21844;DHT22;11084;52.482;9.108;2022-07-29T10:30:14;27.60;58.90
21844;DHT22;11084;52.482;9.108;2022-07-29T10:46:38;27.80;55.90
21844;DHT22;11084;52.482;9.108;2022-07-29T10:52:03;27.80;56.50
21844;DHT22;11084;52.482;9.108;2022-07-29T10:54:49;27.90;56.00
21844;DHT22;11084;52.482;9.108;2022-07-29T10:57:27;27.80;55.10
21844;DHT22;11084;52.482;9.108;2022-07-29T11:05:08;27.60;56.00
21844;DHT22;11084;52.482;9.108;2022-07-29T11:10:46;27.30;54.40
21844;DHT22;11084;52.482;9.108;2022-07-29T11:16:12;27.50;54.70
21844;DHT22;11084;52.482;9.108;2022-07-29T11:21:40;27.50;54.80
21844;DHT22;11084;52.482;9.108;2022-07-29T11:24:15;27.50;53.90
21844;DHT22;11084;52.482;9.108;2022-07-29T11:26:42;27.70;55.00
21844;DHT22;11084;52.482;9.108;2022-07-29T11:29:21;27.80;55.50
21844;DHT22;11084;52.482;9.108;2022-07-29T11:31:52;28.00;55.60
21844;DHT22;11084;52.482;9.108;2022-07-29T11:34:29;28.30;54.50
21844;DHT22;11084;52.482;9.108;2022-07-29T11:39:34;28.60;54.00
21844;DHT22;11084;52.482;9.108;2022-07-29T11:45:14;28.70;53.90
21844;DHT22;11084;52.482;9.108;2022-07-29T11:50:14;28.80;52.80
21844;DHT22;11084;52.482;9.108;2022-07-29T11:52:53;28.90;53.20
21844;DHT22;11084;52.482;9.108;2022-07-29T11:55:22;29.10;53.10
21844;DHT22;11084;52.482;9.108;2022-07-29T11:57:54;29.10;53.40
21844;DHT22;11084;52.482;9.108;2022-07-29T12:02:51;29.50;52.50
21844;DHT22;11084;52.482;9.108;2022-07-29T12:05:18;29.50;51.80
21844;DHT22;11084;52.482;9.108;2022-07-29T12:07:45;29.70;51.90
21844;DHT22;11084;52.482;9.108;2022-07-29T12:10:11;29.90;51.60
21844;DHT22;11084;52.482;9.108;2022-07-29T12:12:37;29.90;51.10
21844;DHT22;11084;52.482;9.108;2022-07-29T12:15:12;30.00;50.90
21844;DHT22;11084;52.482;9.108;2022-07-29T12:17:43;30.10;51.30
21844;DHT22;11084;52.482;9.108;2022-07-29T12:20:09;30.20;50.80
21844;DHT22;11084;52.482;9.108;2022-07-29T12:22:39;30.30;50.50
21844;DHT22;11084;52.482;9.108;2022-07-29T12:25:07;30.30;50.90
21844;DHT22;11084;52.482;9.108;2022-07-29T12:27:36;30.30;49.70
21844;DHT22;11084;52.482;9.108;2022-07-29T12:30:11;30.50;50.10
21844;DHT22;11084;52.482;9.108;2022-07-29T12:32:45;30.50;50.20
21844;DHT22;11084;52.482;9.108;2022-07-29T12:35:16;30.50;50.20
21844;DHT22;11084;52.482;9.108;2022-07-29T12:37:46;30.00;49.20
21844;DHT22;11084;52.482;9.108;2022-07-29T12:40:15;30.00;49.70
21844;DHT22;11084;52.482;9.108;2022-07-29T12:43:04;29.90;50.00
21844;DHT22;11084;52.482;9.108;2022-07-29T12:45:38;29.90;49.10
21844;DHT22;11084;52.482;9.108;2022-07-29T12:48:06;29.90;50.40
21844;DHT22;11084;52.482;9.108;2022-07-29T12:50:35;29.50;49.70
21844;DHT22;11084;52.482;9.108;2022-07-29T12:53:11;29.40;49.90
21844;DHT22;11084;52.482;9.108;2022-07-29T12:55:50;29.50;50.40
21844;DHT22;11084;52.482;9.108;2022-07-29T13:01:12;29.70;50.80
21844;DHT22;11084;52.482;9.108;2022-07-29T13:03:51;28.30;49.50
21844;DHT22;11084;52.482;9.108;2022-07-29T13:09:19;30.10;50.30
21844;DHT22;11084;52.482;9.108;2022-07-29T13:11:50;30.30;49.60
21844;DHT22;11084;52.482;9.108;2022-07-29T13:14:41;30.40;50.00
21844;DHT22;11084;52.482;9.108;2022-07-29T13:17:18;30.40;49.10
21844;DHT22;11084;52.482;9.108;2022-07-29T13:19:50;30.40;49.60
21844;DHT22;11084;52.482;9.108;2022-07-29T13:22:20;30.40;48.60
21844;DHT22;11084;52.482;9.108;2022-07-29T13:24:51;30.40;48.90
21844;DHT22;11084;52.482;9.108;2022-07-29T13:27:22;30.40;49.40
21844;DHT22;11084;52.482;9.108;2022-07-29T13:29:49;30.50;47.90
21844;DHT22;11084;52.482;9.108;2022-07-29T13:32:22;30.70;48.80
21844;DHT22;11084;52.482;9.108;2022-07-29T13:37:15;30.60;48.80
21844;DHT22;11084;52.482;9.108;2022-07-29T13:42:09;30.50;48.20
21844;DHT22;11084;52.482;9.108;2022-07-29T13:44:36;30.60;48.70
21844;DHT22;11084;52.482;9.108;2022-07-29T13:47:02;30.50;48.70
21844;DHT22;11084;52.482;9.108;2022-07-29T13:49:28;30.30;48.70
21844;DHT22;11084;52.482;9.108;2022-07-29T13:51:54;30.10;48.20
21844;DHT22;11084;52.482;9.108;2022-07-29T13:54:20;30.10;48.80
21844;DHT22;11084;52.482;9.108;2022-07-29T13:56:46;29.60;48.40
21844;DHT22;11084;52.482;9.108;2022-07-29T13:59:12;29.50;48.70
21844;DHT22;11084;52.482;9.108;2022-07-29T14:01:38;29.20;48.60
21844;DHT22;11084;52.482;9.108;2022-07-29T14:04:09;29.00;48.60
21844;DHT22;11084;52.482;9.108;2022-07-29T14:06:35;28.90;48.70
21844;DHT22;11084;52.482;9.108;2022-07-29T14:09:03;29.00;49.40
21844;DHT22;11084;52.482;9.108;2022-07-29T14:11:32;28.90;49.30
21844;DHT22;11084;52.482;9.108;2022-07-29T14:13:59;29.00;50.00
21844;DHT22;11084;52.482;9.108;2022-07-29T14:16:25;28.90;48.80
21844;DHT22;11084;52.482;9.108;2022-07-29T14:21:17;28.90;49.20
21844;DHT22;11084;52.482;9.108;2022-07-29T14:23:44;28.90;49.10
21844;DHT22;11084;52.482;9.108;2022-07-29T14:26:10;29.00;49.30
21844;DHT22;11084;52.482;9.108;2022-07-29T14:28:36;29.00;49.30
21844;DHT22;11084;52.482;9.108;2022-07-29T14:31:03;28.90;49.20
21844;DHT22;11084;52.482;9.108;2022-07-29T14:33:29;28.90;49.80
21844;DHT22;11084;52.482;9.108;2022-07-29T14:35:55;28.80;49.80
21844;DHT22;11084;52.482;9.108;2022-07-29T14:40:47;28.70;49.90
21844;DHT22;11084;52.482;9.108;2022-07-29T14:43:15;28.70;50.50
21844;DHT22;11084;52.482;9.108;2022-07-29T14:45:41;28.50;49.60
21844;DHT22;11084;52.482;9.108;2022-07-29T14:48:07;28.50;50.00
21844;DHT22;11084;52.482;9.108;2022-07-29T14:53:00;28.40;50.10
21844;DHT22;11084;52.482;9.108;2022-07-29T14:55:26;28.40;50.10
21844;DHT22;11084;52.482;9.108;2022-07-29T14:57:53;28.40;50.30
21844;DHT22;11084;52.482;9.108;2022-07-29T15:00:19;28.30;50.30
21844;DHT22;11084;52.482;9.108;2022-07-29T15:02:47;28.30;50.80
21844;DHT22;11084;52.482;9.108;2022-07-29T15:07:40;27.90;50.90
21844;DHT22;11084;52.482;9.108;2022-07-29T15:10:06;27.80;50.90
21844;DHT22;11084;52.482;9.108;2022-07-29T15:12:32;27.80;51.00
21844;DHT22;11084;52.482;9.108;2022-07-29T15:14:58;27.70;51.00
21844;DHT22;11084;52.482;9.108;2022-07-29T15:17:25;27.70;51.00
21844;DHT22;11084;52.482;9.108;2022-07-29T15:19:51;27.70;51.50
21844;DHT22;11084;52.482;9.108;2022-07-29T15:22:17;27.50;50.90
21844;DHT22;11084;52.482;9.108;2022-07-29T15:24:43;27.50;51.20
21844;DHT22;11084;52.482;9.108;2022-07-29T15:27:10;27.40;51.20
21844;DHT22;11084;52.482;9.108;2022-07-29T15:29:43;27.40;51.60
21844;DHT22;11084;52.482;9.108;2022-07-29T15:32:11;27.40;51.70
21844;DHT22;11084;52.482;9.108;2022-07-29T15:34:37;27.40;52.00
21844;DHT22;11084;52.482;9.108;2022-07-29T15:37:05;27.30;51.30
21844;DHT22;11084;52.482;9.108;2022-07-29T15:39:33;27.30;51.90
21844;DHT22;11084;52.482;9.108;2022-07-29T15:41:59;27.30;52.30
21844;DHT22;11084;52.482;9.108;2022-07-29T15:44:28;27.10;51.70
21844;DHT22;11084;52.482;9.108;2022-07-29T15:46:58;27.00;51.80
21844;DHT22;11084;52.482;9.108;2022-07-29T15:49:38;26.90;51.90
21844;DHT22;11084;52.482;9.108;2022-07-29T15:52:07;27.00;52.60
21844;DHT22;11084;52.482;9.108;2022-07-29T15:54:35;26.80;52.90
21844;DHT22;11084;52.482;9.108;2022-07-29T15:57:04;26.90;53.40
21844;DHT22;11084;52.482;9.108;2022-07-29T15:59:31;26.80;53.50
21844;DHT22;11084;52.482;9.108;2022-07-29T16:01:58;26.70;53.30
21844;DHT22;11084;52.482;9.108;2022-07-29T16:04:25;26.70;53.70
21844;DHT22;11084;52.482;9.108;2022-07-29T16:06:52;26.70;53.90
21844;DHT22;11084;52.482;9.108;2022-07-29T16:09:18;26.70;53.80
21844;DHT22;11084;52.482;9.108;2022-07-29T16:11:45;26.70;54.10
21844;DHT22;11084;52.482;9.108;2022-07-29T16:14:13;26.70;54.40
21844;DHT22;11084;52.482;9.108;2022-07-29T16:16:39;26.50;53.90
21844;DHT22;11084;52.482;9.108;2022-07-29T16:19:06;26.50;54.00
21844;DHT22;11084;52.482;9.108;2022-07-29T16:21:34;26.50;54.10
21844;DHT22;11084;52.482;9.108;2022-07-29T16:24:03;26.50;54.60
21844;DHT22;11084;52.482;9.108;2022-07-29T16:26:33;26.40;54.80
21844;DHT22;11084;52.482;9.108;2022-07-29T16:29:00;26.40;55.40
21844;DHT22;11084;52.482;9.108;2022-07-29T16:31:26;26.20;55.10
21844;DHT22;11084;52.482;9.108;2022-07-29T16:33:54;26.20;55.60
21844;DHT22;11084;52.482;9.108;2022-07-29T16:36:20;26.20;55.60
21844;DHT22;11084;52.482;9.108;2022-07-29T16:38:46;26.10;55.90
21844;DHT22;11084;52.482;9.108;2022-07-29T16:41:13;26.10;56.20
21844;DHT22;11084;52.482;9.108;2022-07-29T16:43:39;26.00;56.60
21844;DHT22;11084;52.482;9.108;2022-07-29T16:46:09;25.90;56.60
21844;DHT22;11084;52.482;9.108;2022-07-29T16:48:37;25.90;56.10
21844;DHT22;11084;52.482;9.108;2022-07-29T16:51:07;25.80;56.30
21844;DHT22;11084;52.482;9.108;2022-07-29T16:53:33;25.90;56.70
21844;DHT22;11084;52.482;9.108;2022-07-29T16:55:59;25.80;57.20
21844;DHT22;11084;52.482;9.108;2022-07-29T16:58:27;25.80;57.80
21844;DHT22;11084;52.482;9.108;2022-07-29T17:00:54;25.80;59.40
21844;DHT22;11084;52.482;9.108;2022-07-29T17:03:20;25.80;59.30
21844;DHT22;11084;52.482;9.108;2022-07-29T17:05:46;25.70;60.50
21844;DHT22;11084;52.482;9.108;2022-07-29T17:08:13;25.70;60.30
21844;DHT22;11084;52.482;9.108;2022-07-29T17:10:40;25.70;60.70
21844;DHT22;11084;52.482;9.108;2022-07-29T17:13:06;25.60;60.20
21844;DHT22;11084;52.482;9.108;2022-07-29T17:15:32;25.60;61.10
21844;DHT22;11084;52.482;9.108;2022-07-29T17:17:59;25.60;62.00